Vincennes, Indiana
Current Conditions -  °F | °C
As of 12:53 PM on Monday 20 Oct 2014 (Local Time) from KLWV Reporting Station
Clear Clear  
Wind Chill: 68°   Ceiling: Unl
Heat Index: 68°   Visibility: 10mi
Dew Point: 52°   Wind: 12mph
Humidity: 56%   Direction: 280°W
Pressure: 29.91"   Gusts: 21mph
Location:  38.68°N, 87.53°W
Report Text: KLWV 201753Z AUTO 28010G18KT 10SM CLR 20/11 A2991 RMK AO2 SLP128 T02000111 10200 20094 56020
Loading
Personal Weather Stations






























Interactive Weather Map
Tropical Storm Tracking
New forecast layout! Learn more

10-Day Weather Forecast

Advertisements
Track Severe Weather on mobile